Time;durP1;ratioP1;P1;durP2;ratioP2;P2;SDS_P1;SDS_P2;PMS_P1;PMS_P2;Temp;Humidity;BMP_temperature;BMP_pressure;BME280_temperature;BME280_humidity;BME280_pressure;Samples;Min_cycle;Max_cycle;Signal;HPM_P1;HPM_P2
2021/04/25 00:00:10;;;;;;;8.13;4.78;;;8.80;95.60;;;;;;5068298;28;20082;-69
2021/04/25 00:02:35;;;;;;;11.07;5.60;;;8.80;95.70;;;;;;5067943;28;20021;-69
2021/04/25 00:05:01;;;;;;;9.20;4.93;;;8.70;95.90;;;;;;5065892;28;20028;-69
2021/04/25 00:07:27;;;;;;;10.38;5.32;;;8.70;96.10;;;;;;5064871;28;20032;-69
2021/04/25 00:09:52;;;;;;;12.98;5.75;;;8.60;96.40;;;;;;5068376;28;20106;-69
2021/04/25 00:12:18;;;;;;;11.55;5.75;;;8.60;96.40;;;;;;5064386;28;20111;-69
2021/04/25 00:14:44;;;;;;;10.48;5.93;;;8.50;96.70;;;;;;5071008;28;20029;-69
2021/04/25 00:17:09;;;;;;;17.75;5.65;;;8.50;96.80;;;;;;5070197;28;20025;-69
2021/04/25 00:19:35;;;;;;;11.93;5.68;;;8.50;96.90;;;;;;5064334;28;20043;-68
2021/04/25 00:22:00;;;;;;;13.10;5.32;;;8.50;97.30;;;;;;5066296;28;20050;-69
2021/04/25 00:24:26;;;;;;;11.82;5.18;;;8.50;97.20;;;;;;5073005;28;20484;-69
2021/04/25 00:26:52;;;;;;;15.63;6.10;;;8.40;97.40;;;;;;5073579;28;20031;-69
2021/04/25 00:29:17;;;;;;;14.20;5.53;;;8.40;97.50;;;;;;5063076;28;20103;-69
2021/04/25 00:31:43;;;;;;;16.85;6.18;;;8.50;97.30;;;;;;5071409;28;20029;-69
2021/04/25 00:34:09;;;;;;;13.50;5.57;;;8.50;97.50;;;;;;5076994;28;20029;-69
2021/04/25 00:36:34;;;;;;;13.13;6.85;;;8.40;97.60;;;;;;5073075;28;20119;-69
2021/04/25 00:39:00;;;;;;;9.02;5.15;;;8.40;97.80;;;;;;5074002;28;20021;-69
2021/04/25 00:41:25;;;;;;;10.70;5.88;;;8.30;97.90;;;;;;5068352;28;20132;-69
2021/04/25 00:43:54;;;;;;;11.68;5.88;;;8.30;98.00;;;;;;5074335;28;20035;-69
2021/04/25 00:46:19;;;;;;;11.02;6.10;;;8.30;98.10;;;;;;5074084;28;20021;-69
2021/04/25 00:48:45;;;;;;;11.90;6.00;;;8.20;98.20;;;;;;5076498;28;20025;-69
2021/04/25 00:51:13;;;;;;;12.32;6.45;;;8.20;98.30;;;;;;5074399;28;20040;-69
2021/04/25 00:53:42;;;;;;;11.57;6.25;;;8.10;98.30;;;;;;5064035;28;20098;-69
2021/04/25 00:56:08;;;;;;;18.00;6.45;;;8.20;98.40;;;;;;5068703;28;20536;-69
2021/04/25 00:58:34;;;;;;;12.77;6.15;;;8.10;98.40;;;;;;5068588;28;20530;-69
2021/04/25 01:01:00;;;;;;;15.48;6.43;;;8.00;98.50;;;;;;5070645;28;20037;-69
2021/04/25 01:03:25;;;;;;;12.57;6.18;;;8.00;98.60;;;;;;5076310;28;20020;-69
2021/04/25 01:05:51;;;;;;;11.90;5.90;;;8.10;98.20;;;;;;5072090;28;20111;-69
2021/04/25 01:08:17;;;;;;;12.52;6.40;;;8.10;98.20;;;;;;5067994;28;20089;-69
2021/04/25 01:10:43;;;;;;;14.07;6.22;;;7.90;98.30;;;;;;5074087;28;20016;-69
2021/04/25 01:13:09;;;;;;;14.35;6.22;;;8.00;98.40;;;;;;5073143;28;20032;-69
2021/04/25 01:15:34;;;;;;;12.55;6.18;;;7.90;98.50;;;;;;5075833;28;20020;-69
2021/04/25 01:18:00;;;;;;;13.75;6.28;;;7.80;98.50;;;;;;5066648;28;20363;-69
2021/04/25 01:20:26;;;;;;;14.40;6.15;;;7.80;98.40;;;;;;5068214;28;20307;-69
2021/04/25 01:22:52;;;;;;;11.95;6.82;;;7.80;98.50;;;;;;5074401;28;20021;-69
2021/04/25 01:25:21;;;;;;;15.90;6.50;;;7.70;98.40;;;;;;5064316;28;20059;-69
2021/04/25 01:27:47;;;;;;;11.70;6.10;;;7.70;98.50;;;;;;5074654;28;20174;-69
2021/04/25 01:30:17;;;;;;;13.30;6.63;;;7.60;98.50;;;;;;5068583;28;20032;-69
2021/04/25 01:32:43;;;;;;;14.23;6.20;;;7.60;98.70;;;;;;5067696;28;20070;-69
2021/04/25 01:35:15;;;;;;;12.63;6.50;;;7.60;98.80;;;;;;5070993;28;20118;-69
2021/04/25 01:37:42;;;;;;;12.48;5.80;;;7.50;98.90;;;;;;5070465;28;20020;-69
2021/04/25 01:40:10;;;;;;;14.20;6.25;;;7.40;99.10;;;;;;5069744;28;20041;-69
2021/04/25 01:42:35;;;;;;;14.50;6.93;;;7.40;99.60;;;;;;5065092;28;20024;-69
2021/04/25 01:45:02;;;;;;;16.35;6.60;;;7.30;99.90;;;;;;5070104;28;20478;-69
2021/04/25 01:47:28;;;;;;;13.93;6.18;;;7.30;99.90;;;;;;5073770;28;20066;-69
2021/04/25 01:49:53;;;;;;;17.55;7.15;;;7.20;99.90;;;;;;5063229;28;20033;-69
2021/04/25 01:52:19;;;;;;;17.30;7.20;;;7.20;99.90;;;;;;5066675;28;20051;-69
2021/04/25 01:54:45;;;;;;;18.13;7.50;;;7.20;99.90;;;;;;5076591;28;20024;-69
2021/04/25 01:57:10;;;;;;;13.35;6.47;;;7.20;99.90;;;;;;5070552;28;20032;-69
2021/04/25 01:59:36;;;;;;;12.77;7.10;;;7.20;99.90;;;;;;5068289;28;20044;-69
2021/04/25 02:02:02;;;;;;;14.65;6.68;;;7.20;99.90;;;;;;5066060;28;20026;-69
2021/04/25 02:04:28;;;;;;;16.08;7.60;;;7.10;99.90;;;;;;5062655;28;20504;-69
2021/04/25 02:06:53;;;;;;;17.65;7.57;;;7.10;99.90;;;;;;5069420;28;20032;-69
2021/04/25 02:09:19;;;;;;;17.30;7.22;;;7.00;99.90;;;;;;5071149;28;20099;-69
2021/04/25 02:11:45;;;;;;;22.13;7.03;;;6.90;99.90;;;;;;5065141;28;20529;-69
2021/04/25 02:14:10;;;;;;;13.25;7.10;;;7.00;99.90;;;;;;5072989;28;20066;-69
2021/04/25 02:16:36;;;;;;;17.98;7.43;;;7.00;99.90;;;;;;5070119;28;20043;-68
2021/04/25 02:19:02;;;;;;;14.93;7.55;;;7.00;99.90;;;;;;5069923;28;20047;-69
2021/04/25 02:21:28;;;;;;;16.23;7.53;;;6.90;99.90;;;;;;5072865;28;20376;-69
2021/04/25 02:23:55;;;;;;;18.17;7.57;;;6.90;99.90;;;;;;5074002;28;20024;-69
2021/04/25 02:26:21;;;;;;;15.82;7.57;;;6.90;99.90;;;;;;5061065;28;20048;-69
2021/04/25 02:28:47;;;;;;;13.90;7.03;;;6.80;99.90;;;;;;5074655;28;20036;-69
2021/04/25 02:31:13;;;;;;;15.77;7.93;;;6.70;99.90;;;;;;5061253;28;20089;-69
2021/04/25 02:33:39;;;;;;;14.88;7.38;;;6.80;99.90;;;;;;5073351;28;20435;-69
2021/04/25 02:36:08;;;;;;;16.02;7.55;;;6.80;99.90;;;;;;5063576;28;20074;-69
2021/04/25 02:38:34;;;;;;;16.17;8.48;;;6.70;99.90;;;;;;5070032;28;20350;-69
2021/04/25 02:41:02;;;;;;;16.30;8.35;;;6.70;99.90;;;;;;5065492;28;20055;-69
2021/04/25 02:43:28;;;;;;;19.48;7.97;;;6.60;99.90;;;;;;5072254;28;20425;-69
2021/04/25 02:45:54;;;;;;;17.38;7.93;;;6.60;99.90;;;;;;5067139;28;20020;-69
2021/04/25 02:48:19;;;;;;;17.98;8.70;;;6.60;99.90;;;;;;5069317;28;20477;-68
2021/04/25 02:50:45;;;;;;;16.42;8.27;;;6.60;99.90;;;;;;5067946;28;20024;-69
2021/04/25 02:53:13;;;;;;;17.10;7.93;;;6.60;99.90;;;;;;5071105;28;20031;-69
2021/04/25 02:55:39;;;;;;;18.17;7.97;;;6.50;99.90;;;;;;5059126;28;20098;-69
2021/04/25 02:58:06;;;;;;;14.25;7.78;;;6.50;99.90;;;;;;5075275;28;20059;-69
2021/04/25 03:00:32;;;;;;;17.27;7.53;;;6.50;99.90;;;;;;5074050;28;20477;-69
2021/04/25 03:02:58;;;;;;;14.25;7.70;;;6.40;99.90;;;;;;5073804;28;20611;-69
2021/04/25 03:05:25;;;;;;;15.52;8.68;;;6.50;99.90;;;;;;5071341;28;20032;-69
2021/04/25 03:07:51;;;;;;;18.23;8.60;;;6.50;99.90;;;;;;5067338;28;20039;-69
2021/04/25 03:10:17;;;;;;;17.30;7.97;;;6.40;99.90;;;;;;5071944;28;20040;-69
2021/04/25 03:12:45;;;;;;;23.20;8.77;;;6.40;99.90;;;;;;5070732;28;20024;-69
2021/04/25 03:15:12;;;;;;;23.88;9.30;;;6.40;99.90;;;;;;5069695;28;20032;-69
2021/04/25 03:17:38;;;;;;;18.58;8.50;;;6.30;99.90;;;;;;5075606;28;20103;-69
2021/04/25 03:20:06;;;;;;;20.75;9.70;;;6.40;99.90;;;;;;5063212;28;20043;-69
2021/04/25 03:22:31;;;;;;;20.80;8.43;;;6.30;99.90;;;;;;5064355;28;20033;-69
2021/04/25 03:24:57;;;;;;;19.45;8.80;;;6.20;99.90;;;;;;5073399;28;20136;-69
2021/04/25 03:27:23;;;;;;;19.23;8.50;;;6.20;99.90;;;;;;5072085;28;20518;-69
2021/04/25 03:29:48;;;;;;;19.65;8.48;;;6.20;99.90;;;;;;5065079;28;20016;-69
2021/04/25 03:32:14;;;;;;;18.83;9.43;;;6.10;99.90;;;;;;5071551;28;20032;-69
2021/04/25 03:34:40;;;;;;;17.25;8.05;;;6.00;99.90;;;;;;5065033;28;20436;-69
2021/04/25 03:37:05;;;;;;;17.25;8.10;;;6.10;99.90;;;;;;5070124;28;20028;-69
2021/04/25 03:39:31;;;;;;;19.25;9.85;;;6.00;99.90;;;;;;5070291;28;20080;-69
2021/04/25 03:41:57;;;;;;;21.35;9.48;;;6.10;99.90;;;;;;5069557;28;20445;-69
2021/04/25 03:44:23;;;;;;;18.55;9.07;;;6.10;99.90;;;;;;5064094;28;20032;-69
2021/04/25 03:46:48;;;;;;;19.67;9.10;;;6.10;99.90;;;;;;5065740;28;20099;-69
2021/04/25 03:49:20;;;;;;;19.08;8.60;;;6.00;99.90;;;;;;5073167;28;20024;-69
2021/04/25 03:51:49;;;;;;;25.20;10.23;;;6.10;99.90;;;;;;5068571;28;20017;-69
2021/04/25 03:54:15;;;;;;;19.45;9.02;;;6.10;99.90;;;;;;5059828;28;20067;-69
2021/04/25 03:56:41;;;;;;;21.40;9.50;;;6.10;99.90;;;;;;5066753;28;20083;-69
2021/04/25 03:59:07;;;;;;;22.88;9.77;;;6.00;99.90;;;;;;5072343;28;20069;-69
2021/04/25 04:01:32;;;;;;;22.80;9.60;;;5.90;99.90;;;;;;5070225;28;20261;-69
2021/04/25 04:03:58;;;;;;;19.38;9.82;;;5.70;99.90;;;;;;5068880;28;20495;-69
2021/04/25 04:06:23;;;;;;;16.60;9.35;;;5.70;99.90;;;;;;5072049;28;20055;-69
2021/04/25 04:08:49;;;;;;;17.52;8.80;;;5.80;99.90;;;;;;5066813;28;20024;-69
2021/04/25 04:11:15;;;;;;;18.83;9.63;;;5.80;99.90;;;;;;5069140;28;20017;-69
2021/04/25 04:13:40;;;;;;;19.50;9.30;;;5.80;99.90;;;;;;5074579;28;20074;-70
2021/04/25 04:16:06;;;;;;;20.60;10.15;;;5.80;99.90;;;;;;5074376;28;20032;-69
2021/04/25 04:18:32;;;;;;;20.20;9.55;;;5.80;99.90;;;;;;5075157;28;20544;-69
2021/04/25 04:20:57;;;;;;;17.05;9.18;;;5.80;99.90;;;;;;5071008;28;20037;-69
2021/04/25 04:23:23;;;;;;;27.13;10.48;;;5.70;99.90;;;;;;5061046;28;20191;-69
2021/04/25 04:25:49;;;;;;;24.38;9.02;;;5.70;99.90;;;;;;5075349;28;20531;-69
2021/04/25 04:28:15;;;;;;;19.25;8.55;;;5.70;99.90;;;;;;5077701;28;20473;-69
2021/04/25 04:30:41;;;;;;;20.80;9.40;;;5.70;99.90;;;;;;5080408;28;20024;-69
2021/04/25 04:33:07;;;;;;;19.90;9.20;;;5.70;99.90;;;;;;5073388;28;20393;-69
2021/04/25 04:35:33;;;;;;;20.85;8.90;;;5.70;99.90;;;;;;5070314;28;20025;-69
2021/04/25 04:37:58;;;;;;;18.88;8.88;;;5.60;99.90;;;;;;5070797;28;20124;-69
2021/04/25 04:40:24;;;;;;;19.70;9.18;;;5.60;99.90;;;;;;5071523;28;20040;-69
2021/04/25 04:42:50;;;;;;;24.05;9.82;;;5.60;99.90;;;;;;5069160;28;20016;-69
2021/04/25 04:45:16;;;;;;;23.33;9.18;;;5.60;99.90;;;;;;5075192;28;20397;-69
2021/04/25 04:47:43;;;;;;;21.83;9.52;;;5.50;99.90;;;;;;5066131;28;20031;-69
2021/04/25 04:50:11;;;;;;;22.10;8.60;;;5.60;99.90;;;;;;5073613;28;20028;-69
2021/04/25 04:52:36;;;;;;;22.13;9.07;;;5.60;99.90;;;;;;5071920;28;20055;-69
2021/04/25 04:55:03;;;;;;;18.98;9.18;;;5.60;99.90;;;;;;5071020;28;20067;-69
2021/04/25 04:57:28;;;;;;;20.05;8.73;;;5.70;99.90;;;;;;5071273;28;20071;-69
2021/04/25 04:59:54;;;;;;;19.65;8.82;;;5.60;99.90;;;;;;5073113;28;20496;-69
2021/04/25 05:02:20;;;;;;;17.45;8.02;;;5.70;99.90;;;;;;5071535;28;20036;-69
2021/04/25 05:04:45;;;;;;;17.05;8.23;;;5.80;99.90;;;;;;5068930;28;20369;-69
2021/04/25 05:07:11;;;;;;;18.25;8.23;;;5.90;99.90;;;;;;5080608;28;20095;-69
2021/04/25 05:09:37;;;;;;;20.50;8.80;;;5.90;99.90;;;;;;5071845;28;20067;-69
2021/04/25 05:12:04;;;;;;;16.48;8.23;;;6.00;99.90;;;;;;5070145;28;20049;-69
2021/04/25 05:14:29;;;;;;;15.70;8.15;;;6.00;99.90;;;;;;5070098;28;20027;-69
2021/04/25 05:16:55;;;;;;;16.25;7.93;;;6.00;99.90;;;;;;5066844;28;20368;-70
2021/04/25 05:19:20;;;;;;;15.48;7.30;;;6.10;99.90;;;;;;5076949;28;20385;-69
2021/04/25 05:21:46;;;;;;;17.90;8.57;;;6.10;99.90;;;;;;5062932;28;20112;-70
2021/04/25 05:24:12;;;;;;;20.17;7.90;;;6.20;99.90;;;;;;5071779;28;20027;-69
2021/04/25 05:26:37;;;;;;;21.20;7.95;;;6.20;99.90;;;;;;5066535;28;20036;-69
2021/04/25 05:29:04;;;;;;;15.90;7.53;;;6.20;99.90;;;;;;5073034;28;20130;-69
2021/04/25 05:31:29;;;;;;;17.17;6.95;;;6.40;99.90;;;;;;5077299;28;20103;-70
2021/04/25 05:33:55;;;;;;;17.25;7.00;;;6.40;99.90;;;;;;5074213;28;20150;-69
2021/04/25 05:36:21;;;;;;;15.45;7.45;;;6.50;99.90;;;;;;5065807;28;20024;-70
2021/04/25 05:38:46;;;;;;;15.55;7.10;;;6.50;99.90;;;;;;5069042;28;20486;-70
2021/04/25 05:41:12;;;;;;;18.38;7.75;;;6.60;99.90;;;;;;5076102;28;20047;-70
2021/04/25 05:43:38;;;;;;;13.90;7.13;;;6.70;99.90;;;;;;5075733;28;20027;-69
2021/04/25 05:46:04;;;;;;;14.65;6.60;;;6.80;99.90;;;;;;5064479;28;20079;-70
2021/04/25 05:48:30;;;;;;;10.93;6.70;;;6.90;99.90;;;;;;5073571;28;20378;-70
2021/04/25 05:50:55;;;;;;;14.30;6.55;;;6.80;99.90;;;;;;5072490;28;20033;-70
2021/04/25 05:53:21;;;;;;;15.23;6.53;;;6.90;99.90;;;;;;5076200;28;20270;-69
2021/04/25 05:55:46;;;;;;;13.30;6.32;;;6.90;99.90;;;;;;5066733;28;20036;-71
2021/04/25 05:58:12;;;;;;;19.65;6.88;;;6.90;99.90;;;;;;5073658;28;20103;-70
2021/04/25 06:00:39;;;;;;;16.77;5.82;;;7.00;99.90;;;;;;5067549;28;20071;-70
2021/04/25 06:03:06;;;;;;;13.93;6.03;;;7.00;99.90;;;;;;5067764;28;20025;-69
2021/04/25 06:05:32;;;;;;;13.20;5.85;;;7.10;99.90;;;;;;5073811;28;20020;-70
2021/04/25 06:07:57;;;;;;;14.90;5.95;;;7.20;99.90;;;;;;5073344;28;20559;-69
2021/04/25 06:10:24;;;;;;;14.68;6.70;;;7.20;99.90;;;;;;5067743;28;20144;-70
2021/04/25 06:12:51;;;;;;;13.13;6.07;;;7.30;99.90;;;;;;5067951;28;20451;-69
2021/04/25 06:15:18;;;;;;;19.40;5.88;;;7.30;99.90;;;;;;5071580;28;20029;-69
2021/04/25 06:17:44;;;;;;;10.80;5.38;;;7.40;99.90;;;;;;5068406;28;20513;-69
2021/04/25 06:20:11;;;;;;;12.73;6.57;;;7.50;99.90;;;;;;5072508;28;20047;-70
2021/04/25 06:22:37;;;;;;;12.85;5.90;;;7.60;99.90;;;;;;5065126;28;20036;-69
2021/04/25 06:25:03;;;;;;;11.85;6.45;;;7.70;99.90;;;;;;5073229;28;20036;-69
2021/04/25 06:27:29;;;;;;;11.02;5.13;;;7.70;99.90;;;;;;5066696;28;20048;-69
2021/04/25 06:29:55;;;;;;;8.63;4.90;;;7.80;99.90;;;;;;5068089;28;20059;-70
2021/04/25 06:32:21;;;;;;;9.80;6.38;;;7.80;99.90;;;;;;5076564;28;20033;-68
2021/04/25 06:34:47;;;;;;;12.75;5.72;;;7.80;99.90;;;;;;5071487;28;20213;-69
2021/04/25 06:37:13;;;;;;;9.57;5.57;;;7.80;99.90;;;;;;5072321;28;20108;-69
2021/04/25 06:39:39;;;;;;;15.75;6.15;;;7.90;99.90;;;;;;5073500;28;20071;-68
2021/04/25 06:42:05;;;;;;;11.20;5.55;;;8.00;99.90;;;;;;5073595;28;20060;-69
2021/04/25 06:44:30;;;;;;;13.45;5.93;;;8.00;99.90;;;;;;5066233;28;20558;-69
2021/04/25 06:46:56;;;;;;;9.98;4.90;;;7.90;99.90;;;;;;5073258;28;20025;-69
2021/04/25 06:49:22;;;;;;;19.17;5.15;;;8.00;99.90;;;;;;5063588;28;20052;-69
2021/04/25 06:51:48;;;;;;;10.65;5.25;;;7.80;99.90;;;;;;5072300;28;20379;-69
2021/04/25 06:54:14;;;;;;;13.18;5.00;;;7.90;99.90;;;;;;5063577;28;20121;-69
2021/04/25 06:56:42;;;;;;;9.40;4.78;;;8.00;99.90;;;;;;5069939;28;20159;-69
2021/04/25 06:59:07;;;;;;;10.82;4.80;;;8.10;99.90;;;;;;5066050;28;20492;-69
2021/04/25 07:01:33;;;;;;;9.00;4.60;;;8.20;99.90;;;;;;5070548;28;20036;-69
2021/04/25 07:03:59;;;;;;;7.72;4.35;;;8.20;99.90;;;;;;5062375;28;20024;-69
2021/04/25 07:06:24;;;;;;;10.50;4.97;;;8.00;99.90;;;;;;5070412;28;20071;-69
2021/04/25 07:08:50;;;;;;;12.60;4.10;;;8.00;99.90;;;;;;5071560;28;20027;-69
2021/04/25 07:11:16;;;;;;;11.02;4.25;;;7.90;99.90;;;;;;5066159;28;20435;-70
2021/04/25 07:13:41;;;;;;;11.23;4.20;;;8.00;99.90;;;;;;5066673;28;20106;-69
2021/04/25 07:16:07;;;;;;;11.43;4.32;;;7.90;99.90;;;;;;5074933;28;20496;-69
2021/04/25 07:18:33;;;;;;;7.72;4.68;;;7.80;99.80;;;;;;5062430;28;20025;-69
2021/04/25 07:20:59;;;;;;;12.82;4.20;;;7.60;99.90;;;;;;5069732;28;20501;-70
2021/04/25 07:23:25;;;;;;;10.68;4.38;;;7.90;99.90;;;;;;5063491;28;20025;-69
2021/04/25 07:25:52;;;;;;;11.60;4.85;;;7.90;99.90;;;;;;5068983;28;20489;-69
2021/04/25 07:28:18;;;;;;;13.77;4.68;;;8.10;99.90;;;;;;5066242;28;20123;-70
2021/04/25 07:30:47;;;;;;;10.38;4.45;;;8.20;99.90;;;;;;5062214;28;20081;-70
2021/04/25 07:33:13;;;;;;;11.10;4.43;;;8.20;99.90;;;;;;5069574;28;20422;-71
2021/04/25 07:35:39;;;;;;;10.40;4.40;;;8.30;99.90;;;;;;5063961;28;20020;-70
2021/04/25 07:38:04;;;;;;;10.15;4.68;;;8.20;99.90;;;;;;5070160;28;20432;-70
2021/04/25 07:40:30;;;;;;;7.75;4.13;;;8.20;99.90;;;;;;5070345;28;20068;-69
2021/04/25 07:42:57;;;;;;;11.35;5.20;;;8.30;99.80;;;;;;5066562;28;20102;-68
2021/04/25 07:45:23;;;;;;;10.75;4.55;;;8.30;99.60;;;;;;5069043;28;20036;-69
2021/04/25 07:47:48;;;;;;;8.35;4.55;;;8.40;99.70;;;;;;5073932;28;20023;-69
2021/04/25 07:50:14;;;;;;;11.82;4.38;;;8.50;99.50;;;;;;5069144;28;20037;-68
2021/04/25 07:52:41;;;;;;;12.65;4.85;;;8.60;99.70;;;;;;5061663;28;20074;-69
2021/04/25 07:55:08;;;;;;;9.18;4.72;;;8.70;99.70;;;;;;5072596;28;20040;-68
2021/04/25 07:57:34;;;;;;;11.80;4.30;;;8.80;99.90;;;;;;5083885;28;20023;-69
2021/04/25 07:59:59;;;;;;;9.48;4.88;;;8.70;99.80;;;;;;5073507;28;20392;-68
2021/04/25 08:02:25;;;;;;;14.00;5.03;;;9.00;99.10;;;;;;5062405;28;20435;-69
2021/04/25 08:04:51;;;;;;;7.72;3.97;;;9.10;98.90;;;;;;5071930;28;20032;-69
2021/04/25 08:07:17;;;;;;;8.85;4.15;;;9.20;98.40;;;;;;5070329;28;20025;-69
2021/04/25 08:09:43;;;;;;;8.93;4.70;;;9.10;98.70;;;;;;5070974;28;20416;-69
2021/04/25 08:12:09;;;;;;;8.82;4.00;;;9.20;98.30;;;;;;5071555;28;20028;-69
2021/04/25 08:14:35;;;;;;;9.77;4.20;;;8.90;97.90;;;;;;5069158;28;20017;-68
2021/04/25 08:17:01;;;;;;;17.55;4.75;;;8.80;98.50;;;;;;5071483;28;20032;-70
2021/04/25 08:19:26;;;;;;;6.22;4.22;;;9.00;98.50;;;;;;5065948;28;20039;-68
2021/04/25 08:21:52;;;;;;;11.10;4.88;;;9.20;98.60;;;;;;5066799;28;20082;-70
2021/04/25 08:24:18;;;;;;;8.57;4.25;;;9.30;99.10;;;;;;5069726;28;20029;-71
2021/04/25 08:26:43;;;;;;;10.43;5.30;;;9.30;97.80;;;;;;5063662;28;20025;-71
2021/04/25 08:29:09;;;;;;;13.65;4.53;;;9.40;97.30;;;;;;5061216;28;20477;-70
2021/04/25 08:31:35;;;;;;;10.88;4.53;;;9.60;97.30;;;;;;5077746;28;20377;-70
2021/04/25 08:34:00;;;;;;;10.35;4.10;;;9.80;97.70;;;;;;5061295;28;20110;-70
2021/04/25 08:36:26;;;;;;;9.77;4.30;;;9.80;97.20;;;;;;5070313;28;20028;-70
2021/04/25 08:38:51;;;;;;;11.75;3.97;;;10.00;97.90;;;;;;5069420;28;20027;-70
2021/04/25 08:41:20;;;;;;;13.00;4.22;;;10.30;96.60;;;;;;5063036;28;20584;-69
2021/04/25 08:43:46;;;;;;;6.57;3.75;;;10.70;96.90;;;;;;5067293;28;20023;-69
2021/04/25 08:46:16;;;;;;;8.00;4.05;;;11.00;96.60;;;;;;5063808;28;20029;-69
2021/04/25 08:48:45;;;;;;;9.85;3.78;;;11.10;96.20;;;;;;5067726;28;20071;-69
2021/04/25 08:51:10;;;;;;;12.95;4.13;;;11.00;95.60;;;;;;5067693;28;20033;-68
2021/04/25 08:53:39;;;;;;;11.13;4.38;;;10.80;95.40;;;;;;5067000;28;20028;-69
2021/04/25 08:56:05;;;;;;;7.75;4.07;;;10.70;95.90;;;;;;5069612;28;20040;-68
2021/04/25 08:58:33;;;;;;;8.13;3.70;;;10.80;96.40;;;;;;5069113;28;20016;-69
2021/04/25 09:00:58;;;;;;;8.57;3.53;;;11.00;96.00;;;;;;5072113;28;20032;-69
2021/04/25 09:03:24;;;;;;;11.63;4.18;;;11.10;96.30;;;;;;5073498;28;20397;-68
2021/04/25 09:05:50;;;;;;;11.75;4.35;;;10.80;95.80;;;;;;5061710;28;20025;-69
2021/04/25 09:08:15;;;;;;;6.82;3.60;;;10.90;95.50;;;;;;5074241;28;20052;-68
2021/04/25 09:10:43;;;;;;;6.25;3.83;;;10.70;95.00;;;;;;5074609;28;20052;-68
2021/04/25 09:13:20;;;;;;;5.88;3.22;;;11.00;95.10;;;;;;5069106;28;20036;-68
2021/04/25 09:15:47;;;;;;;7.78;3.17;;;11.40;94.90;;;;;;5069555;28;20031;-69
2021/04/25 09:18:13;;;;;;;6.70;3.15;;;11.30;94.10;;;;;;5076985;28;20103;-69
2021/04/25 09:20:46;;;;;;;12.27;4.63;;;11.30;94.00;;;;;;5076443;28;20132;-69
2021/04/25 09:23:34;;;;;;;8.13;3.20;;;11.40;94.00;;;;;;5068541;28;20023;-69
2021/04/25 09:26:04;;;;;;;6.22;3.25;;;11.60;93.40;;;;;;5070257;28;20044;-69
2021/04/25 09:28:30;;;;;;;11.43;3.35;;;11.60;93.10;;;;;;5072763;28;20043;-68
2021/04/25 09:31:03;;;;;;;7.10;3.35;;;11.50;93.60;;;;;;5072870;28;20020;-69
2021/04/25 09:33:51;;;;;;;8.93;3.63;;;11.50;93.90;;;;;;5062315;28;20045;-69
2021/04/25 09:36:22;;;;;;;10.90;3.88;;;11.50;93.20;;;;;;5071297;28;20043;-69
2021/04/25 09:38:51;;;;;;;7.82;3.22;;;11.70;92.50;;;;;;5073393;28;20028;-69
2021/04/25 09:41:27;;;;;;;6.25;2.85;;;11.70;92.80;;;;;;5068527;28;20115;-69
2021/04/25 09:43:52;;;;;;;6.65;3.28;;;11.70;93.00;;;;;;5069170;28;20504;-69
2021/04/25 09:46:18;;;;;;;4.70;3.13;;;11.50;92.60;;;;;;5063615;28;20107;-69
2021/04/25 09:48:44;;;;;;;5.40;3.30;;;11.70;93.20;;;;;;5063326;28;20027;-69
2021/04/25 09:51:09;;;;;;;8.63;3.55;;;11.90;92.70;;;;;;5073064;28;20108;-68
2021/04/25 09:53:55;;;;;;;8.00;3.33;;;12.10;92.60;;;;;;5069309;28;20025;-68
2021/04/25 09:56:38;;;;;;;7.07;3.35;;;12.40;93.80;;;;;;5070863;28;20120;-69
2021/04/25 09:59:07;;;;;;;13.05;3.63;;;12.50;92.60;;;;;;5066176;28;20036;-69
2021/04/25 10:01:32;;;;;;;8.60;3.75;;;12.00;93.50;;;;;;5073129;28;20033;-68
2021/04/25 10:03:59;;;;;;;8.98;3.50;;;12.10;92.40;;;;;;5071263;28;20031;-69
2021/04/25 10:06:25;;;;;;;8.68;3.33;;;12.20;92.50;;;;;;5069492;28;20503;-69
2021/04/25 10:08:52;;;;;;;7.75;3.25;;;12.30;92.20;;;;;;5068420;28;20082;-71
2021/04/25 10:11:21;;;;;;;7.22;3.28;;;12.40;92.50;;;;;;5068591;28;20389;-71
2021/04/25 10:13:47;;;;;;;8.43;3.60;;;12.20;91.70;;;;;;5071462;28;20032;-71
2021/04/25 10:16:18;;;;;;;11.07;4.15;;;12.20;92.20;;;;;;5071344;28;20027;-71
2021/04/25 10:18:44;;;;;;;7.38;3.58;;;12.60;92.50;;;;;;5071477;28;20078;-71
2021/04/25 10:21:10;;;;;;;8.82;3.50;;;12.70;91.80;;;;;;5074179;28;20110;-71
2021/04/25 10:23:36;;;;;;;8.38;3.50;;;12.70;91.60;;;;;;5067188;28;20025;-76
2021/04/25 10:26:24;;;;;;;9.18;3.17;;;13.00;92.20;;;;;;5066338;28;20032;-71
2021/04/25 10:28:55;;;;;;;9.23;3.72;;;12.90;91.20;;;;;;5076126;28;20032;-72
2021/04/25 10:31:29;;;;;;;5.38;3.40;;;13.00;90.90;;;;;;5066325;28;20071;-71
2021/04/25 10:33:59;;;;;;;9.93;3.83;;;13.20;91.20;;;;;;5061055;28;20451;-72
2021/04/25 10:36:45;;;;;;;6.60;3.50;;;13.00;90.50;;;;;;5068372;28;20025;-70
2021/04/25 10:39:38;;;;;;;5.82;3.30;;;13.00;90.90;;;;;;5069339;28;20036;-71
2021/04/25 10:42:24;;;;;;;12.05;3.53;;;12.90;90.60;;;;;;5088114;28;20114;-71
2021/04/25 10:44:59;;;;;;;8.05;3.92;;;13.00;90.90;;;;;;5062916;28;20017;-71
2021/04/25 10:47:27;;;;;;;7.70;3.90;;;13.30;90.40;;;;;;5070093;28;20143;-70
2021/04/25 10:49:56;;;;;;;10.68;3.33;;;13.10;91.00;;;;;;5067393;28;20024;-71
2021/04/25 10:52:29;;;;;;;6.88;3.45;;;13.60;90.50;;;;;;5073627;28;20468;-71
2021/04/25 10:55:10;;;;;;;8.35;3.95;;;13.70;90.50;;;;;;5071083;28;20071;-72
2021/04/25 10:57:54;;;;;;;7.53;3.30;;;14.00;90.40;;;;;;5072811;28;20036;-72
2021/04/25 11:00:37;;;;;;;11.23;3.72;;;14.00;89.40;;;;;;5067260;28;20476;-71
2021/04/25 11:03:04;;;;;;;14.65;4.05;;;14.10;89.70;;;;;;5067624;28;20385;-72
2021/04/25 11:05:39;;;;;;;8.68;4.20;;;13.60;88.80;;;;;;5074955;28;20013;-72
2021/04/25 11:08:25;;;;;;;9.45;3.67;;;13.70;90.20;;;;;;5069143;28;20094;-71
2021/04/25 11:11:11;;;;;;;10.13;4.07;;;13.60;90.70;;;;;;5069742;28;20040;-72
2021/04/25 11:16:07;;;;;;;7.13;3.42;;;13.70;90.40;;;;;;5069938;28;20050;-71
2021/04/25 11:18:55;;;;;;;7.05;3.70;;;14.00;90.30;;;;;;5069148;28;20032;-72
2021/04/25 11:23:55;;;;;;;8.52;4.13;;;14.20;89.30;;;;;;5065900;28;20078;-72
2021/04/25 11:26:40;;;;;;;5.60;3.33;;;14.20;90.50;;;;;;5072654;28;20067;-72
2021/04/25 11:29:12;;;;;;;6.30;3.35;;;14.20;89.50;;;;;;5062081;28;20032;-71
2021/04/25 11:31:53;;;;;;;6.35;3.58;;;13.80;87.90;;;;;;5070417;28;20033;-71
2021/04/25 11:34:31;;;;;;;8.48;3.63;;;13.70;88.80;;;;;;5070652;28;20029;-73
2021/04/25 11:37:22;;;;;;;5.85;3.33;;;13.90;90.30;;;;;;5064010;28;20121;-70
2021/04/25 11:39:52;;;;;;;8.35;3.75;;;14.10;89.20;;;;;;5068034;28;20104;-71
2021/04/25 11:42:30;;;;;;;11.75;3.92;;;14.30;86.20;;;;;;5075610;28;20025;-72
2021/04/25 11:45:18;;;;;;;9.95;3.42;;;14.40;86.90;;;;;;5072287;28;20091;-72
2021/04/25 11:47:51;;;;;;;9.95;3.55;;;14.40;88.00;;;;;;5073459;28;20372;-71
2021/04/25 11:50:18;;;;;;;7.82;3.28;;;14.30;86.00;;;;;;5065758;28;20120;-71
2021/04/25 11:52:45;;;;;;;10.02;3.80;;;14.10;88.20;;;;;;5062198;28;20025;-71
2021/04/25 11:55:18;;;;;;;9.05;3.95;;;14.40;90.10;;;;;;5066700;28;20047;-71
2021/04/25 11:57:47;;;;;;;8.00;3.50;;;14.60;87.90;;;;;;5068282;28;20362;-71
2021/04/25 12:00:20;;;;;;;5.40;3.42;;;14.70;88.50;;;;;;5069970;28;20029;-71
2021/04/25 12:02:49;;;;;;;5.82;3.50;;;14.70;85.30;;;;;;5069674;28;20033;-70
2021/04/25 12:05:19;;;;;;;10.65;3.45;;;14.20;86.70;;;;;;5069294;28;20036;-70
2021/04/25 12:07:58;;;;;;;7.97;3.55;;;14.40;86.90;;;;;;5067314;28;20021;-71
2021/04/25 12:10:32;;;;;;;7.80;3.20;;;14.70;88.10;;;;;;5067703;28;20074;-71
2021/04/25 12:13:17;;;;;;;10.13;4.15;;;14.90;85.10;;;;;;5071610;28;20469;-72
2021/04/25 12:15:45;;;;;;;7.55;3.28;;;15.10;87.00;;;;;;5064783;28;20542;-71
2021/04/25 12:18:11;;;;;;;7.85;3.47;;;14.80;85.00;;;;;;5070213;28;20036;-71
2021/04/25 12:20:43;;;;;;;6.70;3.10;;;15.10;87.90;;;;;;5071082;28;20044;-70
2021/04/25 12:23:12;;;;;;;5.70;2.97;;;15.10;86.50;;;;;;5060970;28;20028;-71
2021/04/25 12:25:39;;;;;;;14.10;3.58;;;15.20;83.70;;;;;;5067707;28;20037;-72
2021/04/25 12:28:05;;;;;;;10.40;3.38;;;15.30;85.50;;;;;;5077317;28;20016;-72
2021/04/25 12:30:31;;;;;;;5.90;3.15;;;15.20;83.90;;;;;;5073803;28;20016;-71
2021/04/25 12:33:14;;;;;;;10.65;3.25;;;15.30;85.20;;;;;;5073584;28;20028;-71
2021/04/25 12:35:45;;;;;;;5.78;2.95;;;15.20;84.70;;;;;;5068784;28;20020;-71
2021/04/25 12:38:15;;;;;;;10.40;3.40;;;15.20;83.70;;;;;;5074487;28;20430;-71
2021/04/25 12:40:40;;;;;;;7.90;3.97;;;15.20;83.20;;;;;;5071513;28;20036;-71
2021/04/25 12:43:18;;;;;;;5.93;3.03;;;15.10;83.90;;;;;;5067653;28;20031;-71
2021/04/25 12:45:45;;;;;;;8.90;3.63;;;15.20;83.30;;;;;;5069112;28;20060;-71
2021/04/25 12:48:30;;;;;;;8.32;3.50;;;15.30;86.20;;;;;;5069222;28;20028;-71
2021/04/25 12:51:02;;;;;;;6.55;3.28;;;15.40;83.90;;;;;;5078302;28;20029;-71
2021/04/25 12:53:28;;;;;;;8.52;3.38;;;15.20;82.70;;;;;;5075934;28;20033;-72